Time;durP1;ratioP1;P1;durP2;ratioP2;P2;SDS_P1;SDS_P2;PMS_P1;PMS_P2;Temp;Humidity;BMP_temperature;BMP_pressure;BME280_temperature;BME280_humidity;BME280_pressure;Samples;Min_cycle;Max_cycle;Signal;HPM_P1;HPM_P2
2022/03/01 00:03:09;;;;;;;;;;;4.70;1.00;;;;;;5151368;27;19914;-69
2022/03/01 00:05:34;;;;;;;;;;;4.60;1.00;;;;;;5150457;27;19908;-69
2022/03/01 00:08:00;;;;;;;;;;;4.60;1.00;;;;;;5151102;27;19919;-68
2022/03/01 00:10:26;;;;;;;;;;;;;;;;;;5150951;27;19918;-72
2022/03/01 00:12:52;;;;;;;;;;;4.70;1.00;;;;;;5150739;27;19930;-68
2022/03/01 00:15:17;;;;;;;;;;;4.70;1.00;;;;;;5151296;27;20279;-67
2022/03/01 00:17:43;;;;;;;;;;;4.70;1.00;;;;;;5131484;27;20287;-67
2022/03/01 00:20:09;;;;;;;;;;;4.70;1.00;;;;;;5151036;27;19916;-67
2022/03/01 00:22:34;;;;;;;;;;;4.60;1.00;;;;;;5150143;27;20351;-68
2022/03/01 00:25:00;;;;;;;;;;;4.70;1.00;;;;;;5150938;27;19908;-67
2022/03/01 00:27:26;;;;;;;;;;;;;;;;;;5150808;27;19911;-70
2022/03/01 00:29:52;;;;;;;;;;;4.80;1.00;;;;;;5150222;27;20274;-68
2022/03/01 00:32:17;;;;;;;;;;;4.80;1.00;;;;;;5150716;27;19915;-68
2022/03/01 00:34:43;;;;;;;;;;;4.80;1.00;;;;;;5149998;27;19907;-68
2022/03/01 00:37:08;;;;;;;;;;;4.80;1.00;;;;;;5150691;27;19907;-68
2022/03/01 00:39:34;;;;;;;;;;;4.60;1.00;;;;;;5131298;27;20278;-68
2022/03/01 00:41:59;;;;;;;;;;;4.60;1.00;;;;;;5131980;27;19928;-68
2022/03/01 00:44:25;;;;;;;;;;;4.70;1.00;;;;;;5150463;27;19908;-68
2022/03/01 00:46:51;;;;;;;;;;;4.50;1.00;;;;;;5149686;27;20170;-68
2022/03/01 00:49:16;;;;;;;;;;;4.40;1.00;;;;;;5149942;27;19930;-68
2022/03/01 00:51:42;;;;;;;;;;;4.10;1.00;;;;;;5149557;27;19919;-68
2022/03/01 00:54:07;;;;;;;;;;;3.80;1.00;;;;;;5150398;27;19911;-68
2022/03/01 00:56:34;;;;;;;;;;;3.80;1.00;;;;;;5148500;27;19975;-68
2022/03/01 00:59:00;;;;;;;;;;;3.90;1.00;;;;;;5131566;27;19907;-68
2022/03/01 01:01:26;;;;;;;;;;;4.10;1.00;;;;;;5136458;27;19907;-68
2022/03/01 01:03:51;;;;;;;;;;;4.30;1.00;;;;;;5116943;27;20579;-67
2022/03/01 01:06:17;;;;;;;;;;;4.40;1.00;;;;;;5117727;27;20390;-68
2022/03/01 01:08:42;;;;;;;;;;;4.50;1.00;;;;;;5117133;27;19911;-68
2022/03/01 01:11:08;;;;;;;;;;;4.60;1.00;;;;;;5136214;27;19907;-68
2022/03/01 01:13:34;;;;;;;;;;;4.60;1.00;;;;;;5135418;27;20420;-68
2022/03/01 01:15:59;;;;;;;;;;;4.60;1.00;;;;;;5136336;27;20362;-67
2022/03/01 01:18:25;;;;;;;;;;;4.60;1.00;;;;;;5135869;27;20286;-68
2022/03/01 01:20:50;;;;;;;;;;;4.60;1.00;;;;;;5135195;27;19964;-68
2022/03/01 01:23:16;;;;;;;;;;;4.60;1.00;;;;;;5135902;27;19990;-68
2022/03/01 01:25:41;;;;;;;;;;;4.30;1.00;;;;;;5135101;27;20063;-68
2022/03/01 01:28:07;;;;;;;;;;;4.10;1.00;;;;;;5136716;27;19940;-68
2022/03/01 01:30:33;;;;;;;;;;;;;;;;;;5135335;27;19912;-71
2022/03/01 01:32:58;;;;;;;;;;;3.90;1.00;;;;;;5135625;27;19994;-68
2022/03/01 01:35:25;;;;;;;;;;;3.90;1.00;;;;;;5117298;27;19907;-68
2022/03/01 01:37:51;;;;;;;;;;;4.00;1.00;;;;;;5134874;27;20634;-68
2022/03/01 01:40:18;;;;;;;;;;;4.00;1.00;;;;;;5135774;27;20010;-68
2022/03/01 01:42:43;;;;;;;;;;;3.90;1.00;;;;;;5134831;27;19915;-68
2022/03/01 01:45:09;;;;;;;;;;;3.70;1.00;;;;;;5135493;27;19907;-68
2022/03/01 01:47:35;;;;;;;;;;;;;;;;;;5116258;27;19908;-71
2022/03/01 01:50:01;;;;;;;;;;;3.50;1.00;;;;;;5116635;27;19961;-68
2022/03/01 01:52:27;;;;;;;;;;;3.40;1.00;;;;;;5135392;27;19911;-68
2022/03/01 01:54:53;;;;;;;;;;;3.40;1.00;;;;;;5134496;27;20328;-68
2022/03/01 01:57:19;;;;;;;;;;;3.40;1.00;;;;;;5135292;27;19907;-68
2022/03/01 01:59:46;;;;;;;;;;;3.50;1.00;;;;;;5134426;27;19908;-68
2022/03/01 02:02:15;;;;;;;;;;;3.30;1.00;;;;;;5135302;27;19972;-68
2022/03/01 02:04:41;;;;;;;;;;;3.30;1.00;;;;;;5134320;27;20003;-68
2022/03/01 02:07:07;;;;;;;;;;;3.40;1.00;;;;;;5116663;27;20407;-68
2022/03/01 02:09:32;;;;;;;;;;;;;;;;;;5134822;27;19970;-71
2022/03/01 02:11:58;;;;;;;;;;;3.30;1.00;;;;;;5133712;27;19998;-68
2022/03/01 02:14:24;;;;;;;;;;;3.50;1.00;;;;;;5135014;27;20284;-68
2022/03/01 02:16:49;;;;;;;;;;;3.20;1.00;;;;;;5134092;27;19908;-68
2022/03/01 02:19:15;;;;;;;;;;;3.10;1.00;;;;;;5134647;27;20428;-68
2022/03/01 02:21:47;;;;;;;;;;;3.00;1.00;;;;;;5133996;27;20484;-68
2022/03/01 02:24:12;;;;;;;;;;;3.10;1.00;;;;;;5134709;27;19907;-68
2022/03/01 02:26:38;;;;;;;;;;;2.80;1.00;;;;;;5133894;27;19956;-68
2022/03/01 02:29:03;;;;;;;;;;;2.70;1.00;;;;;;5116139;27;19912;-68
2022/03/01 02:31:29;;;;;;;;;;;2.70;1.00;;;;;;5116124;27;19928;-67
2022/03/01 02:33:54;;;;;;;;;;;2.80;1.00;;;;;;5133764;27;19946;-68
2022/03/01 02:36:20;;;;;;;;;;;2.70;1.00;;;;;;5134493;27;20275;-68
2022/03/01 02:38:45;;;;;;;;;;;2.30;1.00;;;;;;5133665;27;20435;-67
2022/03/01 02:41:11;;;;;;;;;;;2.10;1.00;;;;;;5134386;27;19907;-68
2022/03/01 02:43:37;;;;;;;;;;;;;;;;;;5133869;27;19911;-71
2022/03/01 02:46:03;;;;;;;;;;;;;;;;;;5133969;27;20357;-68
2022/03/01 02:48:28;;;;;;;;;;;2.70;1.00;;;;;;5115399;27;19943;-67
2022/03/01 02:50:54;;;;;;;;;;;2.80;1.00;;;;;;5133347;27;20128;-67
2022/03/01 02:53:19;;;;;;;;;;;2.90;1.00;;;;;;5134187;27;19915;-67
2022/03/01 02:55:45;;;;;;;;;;;2.80;1.00;;;;;;5133340;27;20244;-68
2022/03/01 02:58:10;;;;;;;;;;;2.90;1.00;;;;;;5115681;27;19914;-67
2022/03/01 03:00:36;;;;;;;;;;;;;;;;;;5115441;27;19918;-71
2022/03/01 03:03:02;;;;;;;;;;;2.70;1.00;;;;;;5133525;27;19972;-68
2022/03/01 03:05:27;;;;;;;;;;;2.80;1.00;;;;;;5133993;27;20278;-67
2022/03/01 03:07:53;;;;;;;;;;;3.00;1.00;;;;;;5133060;27;19911;-67
2022/03/01 03:10:18;;;;;;;;;;;2.80;1.00;;;;;;5133866;27;19908;-68
2022/03/01 03:12:43;;;;;;;;;;;2.80;1.00;;;;;;5133074;27;19954;-68
2022/03/01 03:15:09;;;;;;;;;;;2.90;1.00;;;;;;5133803;27;19914;-67
2022/03/01 03:17:36;;;;;;;;;;;3.00;1.00;;;;;;5133685;27;19907;-68
2022/03/01 03:20:02;;;;;;;;;;;;;;;;;;5117125;27;19950;-68
2022/03/01 03:22:27;;;;;;;;;;;3.20;1.00;;;;;;5094715;28;19908;-68
2022/03/01 03:24:53;;;;;;;;;;;3.30;1.00;;;;;;5112260;28;20428;-68
2022/03/01 03:27:18;;;;;;;;;;;3.30;1.00;;;;;;5113090;28;19908;-67
2022/03/01 03:29:44;;;;;;;;;;;3.50;1.00;;;;;;5112217;28;19918;-68
2022/03/01 03:32:09;;;;;;;;;;;3.70;1.00;;;;;;5113066;28;19915;-68
2022/03/01 03:34:35;;;;;;;;;;;3.70;1.00;;;;;;5113022;28;19994;-68
2022/03/01 03:37:00;;;;;;;;;;;3.80;1.00;;;;;;5112206;28;20188;-68
2022/03/01 03:39:26;;;;;;;;;;;3.70;1.00;;;;;;5112897;28;20371;-67
2022/03/01 03:41:52;;;;;;;;;;;3.90;1.00;;;;;;5112093;28;19915;-67
2022/03/01 03:44:17;;;;;;;;;;;3.90;1.00;;;;;;5112841;28;19911;-66
2022/03/01 03:46:43;;;;;;;;;;;4.00;1.00;;;;;;5112000;28;19914;-67
2022/03/01 03:49:08;;;;;;;;;;;;;;;;;;5116351;28;19919;-67
2022/03/01 03:51:34;;;;;;;;;;;4.00;1.00;;;;;;5133382;28;19915;-67
2022/03/01 03:53:59;;;;;;;;;;;4.10;1.00;;;;;;5114105;28;19994;-67
2022/03/01 03:56:25;;;;;;;;;;;4.10;1.00;;;;;;5133307;28;20275;-67
2022/03/01 03:58:50;;;;;;;;;;;4.10;1.00;;;;;;5132484;28;19908;-67
2022/03/01 04:01:16;;;;;;;;;;;4.00;1.00;;;;;;5114838;28;20332;-66
2022/03/01 04:03:42;;;;;;;;;;;;;;;;;;5132770;28;19914;-70
2022/03/01 04:06:07;;;;;;;;;;;3.90;1.00;;;;;;5132998;28;19908;-67
2022/03/01 04:08:33;;;;;;;;;;;3.80;1.00;;;;;;5133123;28;19912;-67
2022/03/01 04:10:58;;;;;;;;;;;3.80;1.00;;;;;;5132367;28;20441;-67
2022/03/01 04:13:25;;;;;;;;;;;3.70;1.00;;;;;;5114730;28;19908;-67
2022/03/01 04:15:51;;;;;;;;;;;3.70;1.00;;;;;;5113932;28;19960;-67
2022/03/01 04:18:16;;;;;;;;;;;3.70;1.00;;;;;;5132957;28;19915;-67
2022/03/01 04:20:42;;;;;;;;;;;;;;;;;;5132554;28;19915;-70
2022/03/01 04:23:08;;;;;;;;;;;3.70;1.00;;;;;;5132740;28;19942;-67
2022/03/01 04:25:34;;;;;;;;;;;3.60;1.00;;;;;;5133029;28;20290;-67
2022/03/01 04:27:59;;;;;;;;;;;3.60;1.00;;;;;;5132162;28;19913;-67
2022/03/01 04:30:25;;;;;;;;;;;3.60;1.00;;;;;;5132951;28;19915;-66
2022/03/01 04:32:50;;;;;;;;;;;3.70;1.00;;;;;;5132182;28;19958;-67
2022/03/01 04:35:16;;;;;;;;;;;3.60;1.00;;;;;;5134090;27;19912;-67
2022/03/01 04:37:42;;;;;;;;;;;;;;;;;;5118245;27;19908;-69
2022/03/01 04:40:09;;;;;;;;;;;3.70;1.00;;;;;;5136308;27;20253;-67
2022/03/01 04:42:34;;;;;;;;;;;3.60;1.00;;;;;;5137091;27;19908;-67
2022/03/01 04:45:00;;;;;;;;;;;3.70;1.00;;;;;;5135944;27;19915;-67
2022/03/01 04:47:26;;;;;;;;;;;3.60;1.00;;;;;;5136573;27;19914;-67
2022/03/01 04:49:52;;;;;;;;;;;3.60;1.00;;;;;;5135420;27;19919;-67
2022/03/01 04:52:17;;;;;;;;;;;3.70;1.00;;;;;;5136517;27;19998;-67
2022/03/01 04:54:43;;;;;;;;;;;;;;;;;;5136361;27;19908;-70
2022/03/01 04:57:08;;;;;;;;;;;3.70;1.00;;;;;;5135974;27;20015;-67
2022/03/01 04:59:34;;;;;;;;;;;3.80;1.00;;;;;;5118009;27;19907;-67
2022/03/01 05:02:00;;;;;;;;;;;3.90;1.00;;;;;;5135618;27;19908;-67
2022/03/01 05:04:25;;;;;;;;;;;3.90;1.00;;;;;;5136372;27;19943;-67
2022/03/01 05:06:51;;;;;;;;;;;4.00;1.00;;;;;;5135435;27;20378;-67
2022/03/01 05:09:17;;;;;;;;;;;4.00;1.00;;;;;;5136162;27;20268;-67
2022/03/01 05:11:43;;;;;;;;;;;;;;;;;;5136214;27;19994;-67
2022/03/01 05:14:08;;;;;;;;;;;4.00;1.00;;;;;;5135530;27;19907;-67
2022/03/01 05:16:34;;;;;;;;;;;4.00;1.00;;;;;;5136071;27;19915;-67
2022/03/01 05:19:00;;;;;;;;;;;3.90;1.00;;;;;;5135206;27;19912;-67
2022/03/01 05:21:25;;;;;;;;;;;3.90;1.00;;;;;;5116555;27;19918;-66
2022/03/01 05:23:51;;;;;;;;;;;3.90;1.00;;;;;;5114612;28;19911;-67
2022/03/01 05:26:17;;;;;;;;;;;3.90;1.00;;;;;;5115290;28;19990;-67
2022/03/01 05:28:42;;;;;;;;;;;3.90;1.00;;;;;;5115253;28;19911;-67
2022/03/01 05:31:08;;;;;;;;;;;4.00;1.00;;;;;;5096245;28;19919;-66
2022/03/01 05:33:33;;;;;;;;;;;4.00;1.00;;;;;;5115297;28;19908;-67
2022/03/01 05:35:59;;;;;;;;;;;3.90;1.00;;;;;;5096091;28;19908;-67
2022/03/01 05:38:24;;;;;;;;;;;3.80;1.00;;;;;;5115239;28;19915;-67
2022/03/01 05:40:50;;;;;;;;;;;3.70;1.00;;;;;;5114283;28;19907;-67
2022/03/01 05:43:15;;;;;;;;;;;3.60;1.00;;;;;;5115067;28;20014;-67
2022/03/01 05:45:41;;;;;;;;;;;3.70;1.00;;;;;;5096578;28;19987;-66
2022/03/01 05:48:07;;;;;;;;;;;3.70;1.00;;;;;;5113797;28;20058;-66
2022/03/01 05:50:32;;;;;;;;;;;3.90;1.00;;;;;;5125102;27;19912;-66
2022/03/01 05:52:58;;;;;;;;;;;3.80;1.00;;;;;;5134611;27;19907;-66
2022/03/01 05:55:24;;;;;;;;;;;3.90;1.00;;;;;;5116913;27;20344;-66
2022/03/01 05:57:50;;;;;;;;;;;;;;;;;;5134727;27;19911;-69
2022/03/01 06:00:16;;;;;;;;;;;3.80;1.00;;;;;;5135225;27;19908;-66
2022/03/01 06:02:42;;;;;;;;;;;3.80;1.00;;;;;;5135182;27;19930;-66
2022/03/01 06:05:08;;;;;;;;;;;3.80;1.00;;;;;;5134387;27;20340;-66
2022/03/01 06:07:34;;;;;;;;;;;3.70;1.00;;;;;;5135079;27;19908;-69
2022/03/01 06:09:59;;;;;;;;;;;3.70;1.00;;;;;;5134134;27;19919;-66
2022/03/01 06:12:25;;;;;;;;;;;3.60;1.00;;;;;;5134979;27;19915;-66
2022/03/01 06:14:51;;;;;;;;;;;;;;;;;;5134357;27;20371;-70
2022/03/01 06:17:16;;;;;;;;;;;3.80;1.00;;;;;;5134854;27;20523;-66
2022/03/01 06:19:42;;;;;;;;;;;3.60;1.00;;;;;;5116371;27;19965;-66
2022/03/01 06:22:08;;;;;;;;;;;;;;;;;;5133881;27;19918;-65
2022/03/01 06:24:34;;;;;;;;;;;3.60;1.00;;;;;;5134755;27;19931;-65
2022/03/01 06:27:00;;;;;;;;;;;3.60;1.00;;;;;;5115471;27;20279;-64
2022/03/01 06:29:25;;;;;;;;;;;3.60;1.00;;;;;;5134750;27;19911;-64
2022/03/01 06:31:52;;;;;;;;;;;;;;;;;;5134061;27;20388;-67
2022/03/01 06:34:17;;;;;;;;;;;3.60;1.00;;;;;;5134647;27;19911;-65
2022/03/01 06:36:43;;;;;;;;;;;3.50;1.00;;;;;;5134589;27;20003;-67
2022/03/01 06:39:08;;;;;;;;;;;3.50;1.00;;;;;;5115242;27;19908;-65
2022/03/01 06:41:34;;;;;;;;;;;3.50;1.00;;;;;;5134450;27;19915;-68
2022/03/01 06:43:59;;;;;;;;;;;3.50;1.00;;;;;;5133589;27;19907;-65
2022/03/01 06:46:25;;;;;;;;;;;3.60;1.00;;;;;;5134367;27;20257;-70
2022/03/01 06:48:51;;;;;;;;;;;;;;;;;;5133587;27;19927;-69
2022/03/01 06:51:16;;;;;;;;;;;3.60;1.00;;;;;;5133664;27;19916;-65
2022/03/01 06:53:42;;;;;;;;;;;3.60;1.00;;;;;;5134184;27;19907;-66
2022/03/01 06:56:08;;;;;;;;;;;;;;;;;;5133393;27;19907;-67
2022/03/01 06:58:33;;;;;;;;;;;3.50;1.00;;;;;;5115168;27;19907;-67
2022/03/01 07:01:02;;;;;;;;;;;3.50;1.00;;;;;;5133418;27;19907;-68
2022/03/01 07:03:28;;;;;;;;;;;3.60;1.00;;;;;;5134216;27;19907;-68
2022/03/01 07:05:54;;;;;;;;;;;;;;;;;;5133337;27;20363;-70
2022/03/01 07:08:20;;;;;;;;;;;3.50;1.00;;;;;;5133886;27;19958;-66
2022/03/01 07:10:46;;;;;;;;;;;3.40;1.00;;;;;;5133953;27;19907;-66
2022/03/01 07:13:12;;;;;;;;;;;;;;;;;;5129054;27;19904;-67
2022/03/01 07:15:38;;;;;;;;;;;;;;;;;;5130407;27;20274;-67
2022/03/01 07:18:04;;;;;;;;;;;;;;;;;;5129573;27;19972;-67
2022/03/01 07:20:30;;;;;;;;;;;;;;;;;;5130406;27;19911;-67
2022/03/01 07:22:56;;;;;;;;;;;;;;;;;;5129606;27;19933;-68
2022/03/01 07:25:22;;;;;;;;;;;;;;;;;;5129932;27;20279;-67
2022/03/01 07:27:49;;;;;;;;;;;;;;;;;;5130271;27;19915;-68
2022/03/01 07:30:15;;;;;;;;;;;;;;;;;;5129351;27;19922;-67
2022/03/01 07:32:40;;;;;;;;;;;3.30;1.00;;;;;;5130035;27;19908;-67
2022/03/01 07:35:06;;;;;;;;;;;;;;;;;;5129389;27;19914;-68
2022/03/01 07:37:34;;;;;;;;;;;;;;;;;;5129576;27;19911;-67
2022/03/01 07:40:00;;;;;;;;;;;;;;;;;;5129583;27;19997;-67
2022/03/01 07:42:26;;;;;;;;;;;;;;;;;;5130154;27;20594;-68
2022/03/01 07:44:52;;;;;;;;;;;;;;;;;;5131216;27;20386;-68
2022/03/01 07:47:17;;;;;;;;;;;3.60;1.00;;;;;;5111720;28;19914;-68
2022/03/01 07:49:43;;;;;;;;;;;;;;;;;;5133214;28;20359;-68
2022/03/01 07:52:09;;;;;;;;;;;3.60;1.00;;;;;;5134323;28;19912;-68
2022/03/01 07:54:35;;;;;;;;;;;3.70;1.00;;;;;;5134302;28;19908;-68
2022/03/01 07:57:01;;;;;;;;;;;3.80;1.00;;;;;;5133310;28;19914;-68
2022/03/01 07:59:26;;;;;;;;;;;3.90;1.00;;;;;;5133961;28;19956;-68
2022/03/01 08:01:52;;;;;;;;;;;4.00;1.00;;;;;;5134488;28;19915;-68
2022/03/01 08:04:17;;;;;;;;;;;4.00;1.00;;;;;;5133689;28;19911;-68
2022/03/01 08:06:43;;;;;;;;;;;4.10;1.00;;;;;;5134996;28;19914;-67
2022/03/01 08:09:08;;;;;;;;;;;4.20;1.00;;;;;;5133736;27;19911;-67
2022/03/01 08:11:34;;;;;;;;;;;4.30;1.00;;;;;;5119584;27;19907;-67
2022/03/01 08:13:59;;;;;;;;;;;4.40;1.00;;;;;;5137083;27;19908;-67
2022/03/01 08:16:25;;;;;;;;;;;4.50;1.00;;;;;;5138661;27;19908;-67
2022/03/01 08:18:51;;;;;;;;;;;4.80;1.00;;;;;;5138680;27;19911;-67
2022/03/01 08:21:16;;;;;;;;;;;4.80;1.00;;;;;;5119049;27;19998;-66
2022/03/01 08:23:42;;;;;;;;;;;4.80;1.00;;;;;;5138462;27;19955;-66
2022/03/01 08:26:08;;;;;;;;;;;4.90;1.00;;;;;;5137771;27;20423;-67
2022/03/01 08:28:33;;;;;;;;;;;4.90;1.00;;;;;;5138729;27;19915;-67
2022/03/01 08:30:59;;;;;;;;;;;;;;;;;;5137907;27;19913;-68
2022/03/01 08:33:25;;;;;;;;;;;5.00;1.00;;;;;;5120288;27;19973;-66
2022/03/01 08:35:51;;;;;;;;;;;5.20;1.00;;;;;;5137361;27;19907;-66
2022/03/01 08:38:17;;;;;;;;;;;;;;;;;;5136682;27;20002;-66
2022/03/01 08:40:43;;;;;;;;;;;5.80;1.00;;;;;;5136807;27;19953;-66
2022/03/01 08:43:10;;;;;;;;;;;5.50;1.00;;;;;;5135472;27;20019;-66
2022/03/01 08:45:36;;;;;;;;;;;5.40;1.00;;;;;;5119086;27;20282;-65
2022/03/01 08:48:03;;;;;;;;;;;;;;;;;;5112750;27;19919;-63
2022/03/01 08:50:29;;;;;;;;;;;5.30;1.00;;;;;;5135802;27;19916;-62
2022/03/01 08:52:54;;;;;;;;;;;5.50;1.00;;;;;;5136640;27;19914;-63
2022/03/01 08:55:20;;;;;;;;;;;6.40;1.00;;;;;;5135888;27;20026;-63
2022/03/01 08:57:45;;;;;;;;;;;6.10;1.00;;;;;;5136543;27;19911;-66
2022/03/01 09:00:12;;;;;;;;;;;5.50;1.00;;;;;;5135616;27;19907;-66
2022/03/01 09:02:38;;;;;;;;;;;5.20;1.00;;;;;;5136324;27;20287;-66
2022/03/01 09:05:05;;;;;;;;;;;5.60;1.00;;;;;;5135469;27;19908;-66
2022/03/01 09:07:31;;;;;;;;;;;5.40;1.00;;;;;;5136232;27;19914;-64
2022/03/01 09:09:57;;;;;;;;;;;;;;;;;;5137220;27;19911;-66
2022/03/01 09:12:22;;;;;;;;;;;6.20;1.00;;;;;;5137341;27;19908;-65
2022/03/01 09:14:48;;;;;;;;;;;6.30;1.00;;;;;;5118431;27;19907;-64
2022/03/01 09:17:14;;;;;;;;;;;;;;;;;;5137278;27;19908;-65
2022/03/01 09:19:39;;;;;;;;;;;;;;;;;;5137410;27;19912;-65
2022/03/01 09:22:05;;;;;;;;;;;6.60;1.00;;;;;;5136632;27;20348;-67
2022/03/01 09:24:31;;;;;;;;;;;6.00;1.00;;;;;;5137359;27;20339;-67
2022/03/01 09:27:00;;;;;;;;;;;5.40;1.00;;;;;;5119336;27;19915;-65
2022/03/01 09:29:30;;;;;;;;;;;5.50;1.00;;;;;;5137124;27;19915;-65
2022/03/01 09:31:56;;;;;;;;;;;6.40;1.00;;;;;;5138397;27;20356;-65
2022/03/01 09:34:21;;;;;;;;;;;6.90;1.00;;;;;;5135965;27;19903;-65
2022/03/01 09:36:47;;;;;;;;;;;6.80;1.00;;;;;;5136566;27;19911;-67
2022/03/01 09:39:14;;;;;;;;;;;7.00;1.00;;;;;;5099391;27;20395;-66
2022/03/01 09:41:40;;;;;;;;;;;7.00;1.00;;;;;;5116863;27;19907;-65
2022/03/01 09:44:06;;;;;;;;;;;7.10;1.00;;;;;;5135277;27;19956;-65
2022/03/01 09:46:31;;;;;;;;;;;6.90;1.00;;;;;;5118622;27;19919;-67
2022/03/01 09:48:57;;;;;;;;;;;7.20;1.00;;;;;;5135431;27;19923;-68
2022/03/01 09:51:23;;;;;;;;;;;7.70;1.00;;;;;;5136143;27;19994;-66
2022/03/01 09:53:50;;;;;;;;;;;7.90;1.00;;;;;;5136626;27;19990;-67
2022/03/01 09:56:16;;;;;;;;;;;8.00;1.00;;;;;;5116355;27;19907;-66
2022/03/01 09:58:48;;;;;;;;;;;7.80;1.00;;;;;;5117836;27;20256;-66
2022/03/01 10:01:16;;;;;;;;;;;7.40;1.00;;;;;;5136414;27;20419;-67
2022/03/01 10:03:41;;;;;;;;;;;7.60;1.00;;;;;;5136402;27;19915;-67
2022/03/01 10:06:08;;;;;;;;;;;7.50;1.00;;;;;;5136201;27;19911;-67
2022/03/01 10:08:33;;;;;;;;;;;7.40;1.00;;;;;;5136549;27;19963;-67
2022/03/01 10:10:59;;;;;;;;;;;7.40;1.00;;;;;;5117870;27;19907;-67
2022/03/01 10:13:27;;;;;;;;;;;7.30;1.00;;;;;;5135313;27;19923;-68
2022/03/01 10:16:03;;;;;;;;;;;7.30;1.00;;;;;;5135968;27;19908;-67
2022/03/01 10:18:32;;;;;;;;;;;7.20;1.00;;;;;;5135799;27;20365;-67
2022/03/01 10:21:03;;;;;;;;;;;7.30;1.00;;;;;;5135739;27;19918;-67
2022/03/01 10:23:28;;;;;;;;;;;7.10;1.00;;;;;;5135841;27;20360;-67
2022/03/01 10:25:54;;;;;;;;;;;7.00;1.00;;;;;;5135739;27;19915;-71
2022/03/01 10:28:38;;;;;;;;;;;7.10;1.00;;;;;;5134154;27;19916;-67
2022/03/01 10:31:04;;;;;;;;;;;;;;;;;;5134879;27;19907;-69
2022/03/01 10:33:30;;;;;;;;;;;7.20;1.00;;;;;;5133855;27;19908;-68
2022/03/01 10:35:57;;;;;;;;;;;7.30;1.00;;;;;;5135207;27;20022;-68
2022/03/01 10:38:24;;;;;;;;;;;7.20;1.00;;;;;;5134141;27;19912;-68
2022/03/01 10:40:56;;;;;;;;;;;7.20;1.00;;;;;;5134870;27;19908;-67
2022/03/01 10:43:24;;;;;;;;;;;7.30;1.00;;;;;;5134338;27;19991;-72
2022/03/01 10:45:51;;;;;;;;;;;7.40;1.00;;;;;;5135074;27;19907;-73
2022/03/01 10:48:24;;;;;;;;;;;7.40;1.00;;;;;;5133619;27;19965;-68
2022/03/01 10:51:08;;;;;;;;;;;7.50;1.00;;;;;;5134684;27;19919;-67
2022/03/01 10:53:38;;;;;;;;;;;7.50;1.00;;;;;;5116223;27;20371;-67
2022/03/01 10:56:04;;;;;;;;;;;;;;;;;;5134014;27;19908;-68
2022/03/01 10:58:30;;;;;;;;;;;7.50;1.00;;;;;;5134096;27;20363;-67
2022/03/01 11:00:56;;;;;;;;;;;7.50;1.00;;;;;;5134267;27;19953;-67
2022/03/01 11:03:22;;;;;;;;;;;7.60;1.00;;;;;;5133714;27;19957;-67
2022/03/01 11:05:48;;;;;;;;;;;7.70;1.00;;;;;;5134808;27;19908;-67
2022/03/01 11:08:15;;;;;;;;;;;7.70;1.00;;;;;;5133587;27;19915;-67
2022/03/01 11:10:41;;;;;;;;;;;7.80;1.00;;;;;;5133968;27;19930;-74
2022/03/01 11:13:07;;;;;;;;;;;;;;;;;;5114370;27;20367;-67
2022/03/01 11:15:44;;;;;;;;;;;8.20;1.00;;;;;;5123013;27;19912;-67
2022/03/01 11:18:16;;;;;;;;;;;8.10;1.00;;;;;;5119863;27;19916;-66
2022/03/01 11:20:43;;;;;;;;;;;8.00;1.00;;;;;;5121739;27;19912;-67
2022/03/01 11:23:08;;;;;;;;;;;;;;;;;;5119861;27;19908;-68
2022/03/01 11:25:34;;;;;;;;;;;;;;;;;;5104167;27;20290;-68
2022/03/01 11:28:01;;;;;;;;;;;8.10;1.00;;;;;;5123534;27;19907;-67
2022/03/01 11:30:28;;;;;;;;;;;8.10;1.00;;;;;;5122017;27;19922;-68
2022/03/01 11:32:54;;;;;;;;;;;;;;;;;;5121321;27;19923;-69
2022/03/01 11:35:20;;;;;;;;;;;8.40;1.00;;;;;;5121359;27;19907;-69
2022/03/01 11:37:46;;;;;;;;;;;8.40;1.00;;;;;;5122898;27;19968;-69
2022/03/01 11:40:22;;;;;;;;;;;8.40;1.00;;;;;;5105575;28;19911;-69
2022/03/01 11:42:48;;;;;;;;;;;8.60;1.00;;;;;;5129914;27;19916;-69
2022/03/01 11:45:14;;;;;;;;;;;8.70;1.00;;;;;;5129160;27;19947;-69
2022/03/01 11:47:40;;;;;;;;;;;;;;;;;;5129668;27;19965;-68
2022/03/01 11:50:06;;;;;;;;;;;;;;;;;;5129738;28;19923;-69
2022/03/01 11:52:32;;;;;;;;;;;;;;;;;;5110789;28;19918;-69
2022/03/01 11:54:58;;;;;;;;;;;;;;;;;;5129863;28;19947;-69
2022/03/01 11:57:27;;;;;;;;;;;8.60;1.00;;;;;;5129349;28;19911;-69
2022/03/01 11:59:53;;;;;;;;;;;;;;;;;;5129973;28;20393;-68
2022/03/01 12:02:19;;;;;;;;;;;;;;;;;;5129235;28;19907;-69
2022/03/01 12:04:49;;;;;;;;;;;8.80;1.00;;;;;;5129247;28;19980;-69
2022/03/01 12:07:15;;;;;;;;;;;;;;;;;;5129035;28;20390;-68
2022/03/01 12:09:40;;;;;;;;;;;;;;;;;;5129624;28;19915;-69
2022/03/01 12:12:06;;;;;;;;;;;;;;;;;;5129636;28;19926;-69
2022/03/01 12:14:34;;;;;;;;;;;;;;;;;;5129195;28;20006;-69
2022/03/01 12:17:00;;;;;;;;;;;;;;;;;;5129189;28;19990;-69
2022/03/01 12:19:26;;;;;;;;;;;;;;;;;;5129266;28;20017;-69
2022/03/01 12:21:52;;;;;;;;;;;;;;;;;;5129614;28;19960;-69
2022/03/01 12:24:18;;;;;;;;;;;;;;;;;;5129111;28;20307;-69
2022/03/01 12:26:44;;;;;;;;;;;;;;;;;;5129903;28;19908;-69
2022/03/01 12:29:10;;;;;;;;;;;;;;;;;;5128739;28;19946;-68
2022/03/01 12:31:35;;;;;;;;;;;9.60;1.00;;;;;;5129839;28;19959;-70
2022/03/01 12:34:01;;;;;;;;;;;;;;;;;;5130023;28;19907;-71
2022/03/01 12:36:27;;;;;;;;;;;;;;;;;;5129131;28;19971;-70
2022/03/01 12:38:53;;;;;;;;;;;;;;;;;;5129885;28;19911;-70
2022/03/01 12:41:21;;;;;;;;;;;9.50;1.00;;;;;;5128907;28;19912;-70
2022/03/01 12:43:57;;;;;;;;;;;9.60;1.00;;;;;;5129763;28;20104;-70
2022/03/01 12:46:23;;;;;;;;;;;;;;;;;;5129444;28;19915;-70
2022/03/01 12:48:49;;;;;;;;;;;9.60;1.00;;;;;;5129531;28;20350;-70
2022/03/01 12:51:15;;;;;;;;;;;;;;;;;;5128750;28;19923;-70
2022/03/01 12:53:40;;;;;;;;;;;;;;;;;;5128924;28;19919;-70
2022/03/01 12:56:06;;;;;;;;;;;;;;;;;;5130198;27;20368;-70
2022/03/01 12:58:32;;;;;;;;;;;;;;;;;;5132439;27;19909;-70
2022/03/01 13:00:58;;;;;;;;;;;;;;;;;;5133210;27;20291;-70
2022/03/01 13:03:28;;;;;;;;;;;9.50;1.00;;;;;;5132440;27;19915;-70
2022/03/01 13:06:09;;;;;;;;;;;9.50;1.00;;;;;;5132589;27;20314;-70
2022/03/01 13:08:35;;;;;;;;;;;;;;;;;;5132406;27;19912;-70
2022/03/01 13:11:01;;;;;;;;;;;9.50;1.00;;;;;;5133117;27;19934;-70
2022/03/01 13:13:26;;;;;;;;;;;;;;;;;;5132085;27;19911;-70
2022/03/01 13:15:52;;;;;;;;;;;;;;;;;;5132342;27;19912;-70
2022/03/01 13:18:18;;;;;;;;;;;;;;;;;;5132040;27;19915;-70
2022/03/01 13:20:44;;;;;;;;;;;;;;;;;;5132662;27;19930;-71
2022/03/01 13:23:10;;;;;;;;;;;;;;;;;;5132630;27;19947;-70
2022/03/01 13:25:36;;;;;;;;;;;;;;;;;;5131875;27;19908;-70
2022/03/01 13:28:02;;;;;;;;;;;;;;;;;;5132064;27;19918;-71
2022/03/01 13:30:28;;;;;;;;;;;;;;;;;;5131748;27;20291;-70
2022/03/01 13:32:54;;;;;;;;;;;;;;;;;;5132392;27;19961;-70
2022/03/01 13:35:20;;;;;;;;;;;;;;;;;;5132018;27;20275;-70
2022/03/01 13:37:47;;;;;;;;;;;9.40;1.00;;;;;;5135992;27;19915;-70
2022/03/01 13:40:14;;;;;;;;;;;9.50;1.00;;;;;;5135785;27;19907;-70
2022/03/01 13:42:40;;;;;;;;;;;9.80;1.00;;;;;;5134871;27;19914;-70
2022/03/01 13:45:06;;;;;;;;;;;;;;;;;;5117226;27;19908;-70
2022/03/01 13:47:35;;;;;;;;;;;9.70;1.00;;;;;;5134776;27;19907;-70
2022/03/01 13:50:09;;;;;;;;;;;9.80;1.00;;;;;;5135220;27;19923;-70
2022/03/01 13:52:39;;;;;;;;;;;10.00;1.00;;;;;;5134682;27;19914;-70
2022/03/01 13:55:12;;;;;;;;;;;10.30;1.00;;;;;;5135401;27;19908;-70
2022/03/01 13:57:39;;;;;;;;;;;;;;;;;;5134453;27;20583;-70
2022/03/01 14:00:06;;;;;;;;;;;10.10;1.00;;;;;;5135535;27;19918;-70
2022/03/01 14:02:32;;;;;;;;;;;10.30;1.00;;;;;;5116112;27;20340;-70
2022/03/01 14:04:58;;;;;;;;;;;10.30;1.00;;;;;;5135223;27;19955;-70
2022/03/01 14:07:24;;;;;;;;;;;10.00;1.00;;;;;;5134396;27;19908;-70
2022/03/01 14:09:53;;;;;;;;;;;9.90;1.00;;;;;;5127937;27;19912;-70
2022/03/01 14:12:19;;;;;;;;;;;;;;;;;;5114362;28;19987;-70
2022/03/01 14:14:45;;;;;;;;;;;10.10;1.00;;;;;;5113950;28;20028;-70
2022/03/01 14:17:20;;;;;;;;;;;9.80;1.00;;;;;;5114333;28;20048;-70
2022/03/01 14:19:56;;;;;;;;;;;9.90;1.00;;;;;;5114011;28;19908;-70
2022/03/01 14:22:23;;;;;;;;;;;;;;;;;;5095575;28;19916;-70
2022/03/01 14:24:50;;;;;;;;;;;10.00;1.00;;;;;;5114390;28;19908;-70
2022/03/01 14:27:17;;;;;;;;;;;9.90;1.00;;;;;;5114487;28;19907;-70
2022/03/01 14:29:43;;;;;;;;;;;9.80;1.00;;;;;;5113542;28;20087;-70
2022/03/01 14:32:08;;;;;;;;;;;9.80;1.00;;;;;;5095994;28;20367;-70
2022/03/01 14:34:34;;;;;;;;;;;;;;;;;;5092742;28;19912;-70
2022/03/01 14:37:00;;;;;;;;;;;;;;;;;;5110491;28;20314;-70
2022/03/01 14:39:26;;;;;;;;;;;9.80;1.00;;;;;;5112709;28;19953;-70
2022/03/01 14:41:52;;;;;;;;;;;9.90;1.00;;;;;;5113954;28;19964;-69
2022/03/01 14:44:18;;;;;;;;;;;10.00;1.00;;;;;;5114118;28;19911;-70
2022/03/01 14:46:43;;;;;;;;;;;9.90;1.00;;;;;;5113059;28;19918;-70
2022/03/01 14:49:09;;;;;;;;;;;10.00;1.00;;;;;;5113473;28;19919;-70
2022/03/01 14:51:34;;;;;;;;;;;9.70;1.00;;;;;;5094640;28;20010;-70
2022/03/01 14:54:00;;;;;;;;;;;9.90;1.00;;;;;;5113754;28;19912;-70
2022/03/01 14:56:25;;;;;;;;;;;9.70;1.00;;;;;;5112913;28;19915;-70
2022/03/01 14:58:51;;;;;;;;;;;9.50;1.00;;;;;;5113644;28;19908;-70
2022/03/01 15:01:17;;;;;;;;;;;9.60;1.00;;;;;;5113845;28;19915;-70
2022/03/01 15:03:42;;;;;;;;;;;9.50;1.00;;;;;;5094511;28;19904;-70
2022/03/01 15:06:08;;;;;;;;;;;9.50;1.00;;;;;;5113473;28;19915;-70